sensor_id;sensor_type;location;lat;lon;timestamp;P1;durP1;ratioP1;P2;durP2;ratioP2
14400;SDS011;7285;50.894;5.462;2023-08-30T00:02:22;0.50;;;0.50;;
14400;SDS011;7285;50.894;5.462;2023-08-30T00:04:49;0.60;;;0.60;;
14400;SDS011;7285;50.894;5.462;2023-08-30T00:07:16;0.70;;;0.70;;
14400;SDS011;7285;50.894;5.462;2023-08-30T00:09:44;0.63;;;0.63;;
14400;SDS011;7285;50.894;5.462;2023-08-30T00:12:11;0.70;;;0.70;;
14400;SDS011;7285;50.894;5.462;2023-08-30T00:14:39;0.80;;;0.80;;
14400;SDS011;7285;50.894;5.462;2023-08-30T00:17:06;1.03;;;1.03;;
14400;SDS011;7285;50.894;5.462;2023-08-30T00:19:33;0.83;;;0.83;;
14400;SDS011;7285;50.894;5.462;2023-08-30T00:22:01;0.93;;;0.93;;
14400;SDS011;7285;50.894;5.462;2023-08-30T00:24:28;0.73;;;0.73;;
14400;SDS011;7285;50.894;5.462;2023-08-30T00:26:56;0.60;;;0.60;;
14400;SDS011;7285;50.894;5.462;2023-08-30T00:29:23;0.70;;;0.70;;
14400;SDS011;7285;50.894;5.462;2023-08-30T00:31:50;0.70;;;0.70;;
14400;SDS011;7285;50.894;5.462;2023-08-30T00:34:17;1.43;;;1.43;;
14400;SDS011;7285;50.894;5.462;2023-08-30T00:36:44;0.93;;;0.93;;
14400;SDS011;7285;50.894;5.462;2023-08-30T00:39:12;0.80;;;0.80;;
14400;SDS011;7285;50.894;5.462;2023-08-30T00:41:39;0.80;;;0.80;;
14400;SDS011;7285;50.894;5.462;2023-08-30T00:44:08;0.90;;;0.90;;
14400;SDS011;7285;50.894;5.462;2023-08-30T00:46:35;0.83;;;0.83;;
14400;SDS011;7285;50.894;5.462;2023-08-30T00:49:03;1.00;;;1.00;;
14400;SDS011;7285;50.894;5.462;2023-08-30T00:51:31;1.00;;;1.00;;
14400;SDS011;7285;50.894;5.462;2023-08-30T00:54:00;0.97;;;0.90;;
14400;SDS011;7285;50.894;5.462;2023-08-30T00:56:27;0.93;;;0.93;;
14400;SDS011;7285;50.894;5.462;2023-08-30T00:58:56;0.97;;;0.93;;
14400;SDS011;7285;50.894;5.462;2023-08-30T01:01:24;0.63;;;0.63;;
14400;SDS011;7285;50.894;5.462;2023-08-30T01:03:52;0.73;;;0.73;;
14400;SDS011;7285;50.894;5.462;2023-08-30T01:06:19;0.77;;;0.77;;
14400;SDS011;7285;50.894;5.462;2023-08-30T01:08:46;1.03;;;1.03;;
14400;SDS011;7285;50.894;5.462;2023-08-30T01:11:16;1.33;;;1.33;;
14400;SDS011;7285;50.894;5.462;2023-08-30T01:13:50;1.00;;;1.00;;
14400;SDS011;7285;50.894;5.462;2023-08-30T01:16:22;1.20;;;1.20;;
14400;SDS011;7285;50.894;5.462;2023-08-30T01:18:51;0.90;;;0.90;;
14400;SDS011;7285;50.894;5.462;2023-08-30T01:21:23;1.10;;;1.10;;
14400;SDS011;7285;50.894;5.462;2023-08-30T01:24:00;1.13;;;1.10;;
14400;SDS011;7285;50.894;5.462;2023-08-30T01:26:35;1.07;;;1.07;;
14400;SDS011;7285;50.894;5.462;2023-08-30T01:29:10;1.30;;;1.30;;
14400;SDS011;7285;50.894;5.462;2023-08-30T01:31:40;1.20;;;1.20;;
14400;SDS011;7285;50.894;5.462;2023-08-30T01:34:09;1.57;;;1.53;;
14400;SDS011;7285;50.894;5.462;2023-08-30T01:36:38;1.03;;;1.03;;
14400;SDS011;7285;50.894;5.462;2023-08-30T01:39:10;1.20;;;1.13;;
14400;SDS011;7285;50.894;5.462;2023-08-30T01:41:39;0.93;;;0.93;;
14400;SDS011;7285;50.894;5.462;2023-08-30T01:44:07;1.20;;;1.20;;
14400;SDS011;7285;50.894;5.462;2023-08-30T01:46:38;2.83;;;1.37;;
14400;SDS011;7285;50.894;5.462;2023-08-30T01:49:06;1.87;;;1.77;;
14400;SDS011;7285;50.894;5.462;2023-08-30T01:51:35;1.77;;;1.70;;
14400;SDS011;7285;50.894;5.462;2023-08-30T01:54:02;1.03;;;1.03;;
14400;SDS011;7285;50.894;5.462;2023-08-30T01:56:32;1.67;;;1.57;;
14400;SDS011;7285;50.894;5.462;2023-08-30T01:58:59;1.07;;;1.07;;
14400;SDS011;7285;50.894;5.462;2023-08-30T02:01:28;0.90;;;0.90;;
14400;SDS011;7285;50.894;5.462;2023-08-30T02:03:55;0.90;;;0.90;;
14400;SDS011;7285;50.894;5.462;2023-08-30T02:06:24;1.70;;;1.60;;
14400;SDS011;7285;50.894;5.462;2023-08-30T02:08:58;1.30;;;1.30;;
14400;SDS011;7285;50.894;5.462;2023-08-30T02:11:30;1.57;;;1.47;;
14400;SDS011;7285;50.894;5.462;2023-08-30T02:14:00;1.10;;;1.10;;
14400;SDS011;7285;50.894;5.462;2023-08-30T02:16:30;0.90;;;0.90;;
14400;SDS011;7285;50.894;5.462;2023-08-30T02:18:59;0.97;;;0.97;;
14400;SDS011;7285;50.894;5.462;2023-08-30T02:21:29;1.00;;;0.87;;
14400;SDS011;7285;50.894;5.462;2023-08-30T02:23:56;4.23;;;1.53;;
14400;SDS011;7285;50.894;5.462;2023-08-30T02:26:23;0.87;;;0.87;;
14400;SDS011;7285;50.894;5.462;2023-08-30T02:28:50;0.70;;;0.70;;
14400;SDS011;7285;50.894;5.462;2023-08-30T02:31:18;0.93;;;0.93;;
14400;SDS011;7285;50.894;5.462;2023-08-30T02:33:46;0.90;;;0.90;;
14400;SDS011;7285;50.894;5.462;2023-08-30T02:36:13;1.30;;;1.30;;
14400;SDS011;7285;50.894;5.462;2023-08-30T02:38:41;1.07;;;0.97;;
14400;SDS011;7285;50.894;5.462;2023-08-30T02:43:37;2.07;;;1.40;;
14400;SDS011;7285;50.894;5.462;2023-08-30T02:46:11;1.20;;;1.00;;
14400;SDS011;7285;50.894;5.462;2023-08-30T02:48:38;1.83;;;1.13;;
14400;SDS011;7285;50.894;5.462;2023-08-30T02:51:08;1.77;;;1.50;;
14400;SDS011;7285;50.894;5.462;2023-08-30T02:53:36;1.60;;;1.57;;
14400;SDS011;7285;50.894;5.462;2023-08-30T02:56:03;1.00;;;0.90;;
14400;SDS011;7285;50.894;5.462;2023-08-30T02:58:31;6.13;;;1.53;;
14400;SDS011;7285;50.894;5.462;2023-08-30T03:01:06;1.70;;;1.70;;
14400;SDS011;7285;50.894;5.462;2023-08-30T03:03:33;1.33;;;1.33;;
14400;SDS011;7285;50.894;5.462;2023-08-30T03:06:00;1.17;;;1.17;;
14400;SDS011;7285;50.894;5.462;2023-08-30T03:08:29;1.57;;;1.47;;
14400;SDS011;7285;50.894;5.462;2023-08-30T03:11:06;1.33;;;1.23;;
14400;SDS011;7285;50.894;5.462;2023-08-30T03:13:35;1.63;;;1.53;;
14400;SDS011;7285;50.894;5.462;2023-08-30T03:16:02;0.93;;;0.93;;
14400;SDS011;7285;50.894;5.462;2023-08-30T03:18:37;1.80;;;1.70;;
14400;SDS011;7285;50.894;5.462;2023-08-30T03:21:04;1.40;;;1.30;;
14400;SDS011;7285;50.894;5.462;2023-08-30T03:23:34;1.00;;;1.00;;
14400;SDS011;7285;50.894;5.462;2023-08-30T03:26:12;1.67;;;1.57;;
14400;SDS011;7285;50.894;5.462;2023-08-30T03:28:40;1.10;;;1.10;;
14400;SDS011;7285;50.894;5.462;2023-08-30T03:31:12;1.77;;;1.67;;
14400;SDS011;7285;50.894;5.462;2023-08-30T03:33:39;1.37;;;1.27;;
14400;SDS011;7285;50.894;5.462;2023-08-30T03:36:06;2.97;;;1.40;;
14400;SDS011;7285;50.894;5.462;2023-08-30T03:38:37;1.67;;;1.57;;
14400;SDS011;7285;50.894;5.462;2023-08-30T03:41:05;1.50;;;1.40;;
14400;SDS011;7285;50.894;5.462;2023-08-30T03:43:33;1.67;;;1.63;;
14400;SDS011;7285;50.894;5.462;2023-08-30T03:46:00;1.53;;;1.47;;
14400;SDS011;7285;50.894;5.462;2023-08-30T03:48:28;0.83;;;0.70;;
14400;SDS011;7285;50.894;5.462;2023-08-30T03:50:55;1.10;;;1.10;;
14400;SDS011;7285;50.894;5.462;2023-08-30T03:53:23;1.00;;;0.97;;
14400;SDS011;7285;50.894;5.462;2023-08-30T03:55:51;1.37;;;1.27;;
14400;SDS011;7285;50.894;5.462;2023-08-30T03:58:18;1.13;;;1.13;;
14400;SDS011;7285;50.894;5.462;2023-08-30T04:00:47;1.80;;;1.40;;
14400;SDS011;7285;50.894;5.462;2023-08-30T04:03:14;1.33;;;1.17;;
14400;SDS011;7285;50.894;5.462;2023-08-30T04:05:42;0.80;;;0.80;;
14400;SDS011;7285;50.894;5.462;2023-08-30T04:08:09;1.47;;;1.47;;
14400;SDS011;7285;50.894;5.462;2023-08-30T04:10:36;2.20;;;1.80;;
14400;SDS011;7285;50.894;5.462;2023-08-30T04:13:09;1.33;;;1.23;;
14400;SDS011;7285;50.894;5.462;2023-08-30T04:15:37;1.60;;;1.50;;
14400;SDS011;7285;50.894;5.462;2023-08-30T04:18:05;5.83;;;1.47;;
14400;SDS011;7285;50.894;5.462;2023-08-30T04:20:33;1.23;;;1.13;;
14400;SDS011;7285;50.894;5.462;2023-08-30T04:23:00;3.57;;;1.03;;
14400;SDS011;7285;50.894;5.462;2023-08-30T04:25:27;1.60;;;1.50;;
14400;SDS011;7285;50.894;5.462;2023-08-30T04:27:54;1.20;;;1.17;;
14400;SDS011;7285;50.894;5.462;2023-08-30T04:30:23;2.03;;;1.53;;
14400;SDS011;7285;50.894;5.462;2023-08-30T04:32:50;1.53;;;1.10;;
14400;SDS011;7285;50.894;5.462;2023-08-30T04:35:17;2.23;;;1.23;;
14400;SDS011;7285;50.894;5.462;2023-08-30T04:37:44;2.17;;;2.07;;
14400;SDS011;7285;50.894;5.462;2023-08-30T04:40:11;1.77;;;1.67;;
14400;SDS011;7285;50.894;5.462;2023-08-30T04:42:39;1.37;;;1.27;;
14400;SDS011;7285;50.894;5.462;2023-08-30T04:45:07;1.90;;;1.80;;
14400;SDS011;7285;50.894;5.462;2023-08-30T04:47:36;1.53;;;1.43;;
14400;SDS011;7285;50.894;5.462;2023-08-30T04:50:03;1.07;;;1.07;;
14400;SDS011;7285;50.894;5.462;2023-08-30T04:52:31;1.20;;;1.10;;
14400;SDS011;7285;50.894;5.462;2023-08-30T04:54:58;1.57;;;1.47;;
14400;SDS011;7285;50.894;5.462;2023-08-30T04:57:25;1.07;;;1.07;;
14400;SDS011;7285;50.894;5.462;2023-08-30T04:59:52;1.03;;;1.03;;
14400;SDS011;7285;50.894;5.462;2023-08-30T05:02:19;1.27;;;1.00;;
14400;SDS011;7285;50.894;5.462;2023-08-30T05:04:50;1.10;;;1.10;;
14400;SDS011;7285;50.894;5.462;2023-08-30T05:07:18;0.90;;;0.90;;
14400;SDS011;7285;50.894;5.462;2023-08-30T05:09:46;9.13;;;1.20;;
14400;SDS011;7285;50.894;5.462;2023-08-30T05:12:13;1.47;;;1.37;;
14400;SDS011;7285;50.894;5.462;2023-08-30T05:14:40;0.90;;;0.90;;
14400;SDS011;7285;50.894;5.462;2023-08-30T05:17:07;1.87;;;1.77;;
14400;SDS011;7285;50.894;5.462;2023-08-30T05:19:35;0.80;;;0.80;;
14400;SDS011;7285;50.894;5.462;2023-08-30T05:22:03;2.03;;;1.00;;
14400;SDS011;7285;50.894;5.462;2023-08-30T05:24:30;0.80;;;0.80;;
14400;SDS011;7285;50.894;5.462;2023-08-30T05:26:58;1.13;;;1.13;;
14400;SDS011;7285;50.894;5.462;2023-08-30T05:29:25;1.40;;;1.40;;
14400;SDS011;7285;50.894;5.462;2023-08-30T05:31:52;1.43;;;1.40;;
14400;SDS011;7285;50.894;5.462;2023-08-30T05:34:19;1.73;;;1.63;;
14400;SDS011;7285;50.894;5.462;2023-08-30T05:36:46;1.20;;;1.20;;
14400;SDS011;7285;50.894;5.462;2023-08-30T05:39:14;1.27;;;1.20;;
14400;SDS011;7285;50.894;5.462;2023-08-30T05:41:41;0.90;;;0.90;;
14400;SDS011;7285;50.894;5.462;2023-08-30T05:44:08;1.00;;;1.00;;
14400;SDS011;7285;50.894;5.462;2023-08-30T05:46:36;0.83;;;0.83;;
14400;SDS011;7285;50.894;5.462;2023-08-30T05:49:03;1.30;;;1.20;;
14400;SDS011;7285;50.894;5.462;2023-08-30T05:51:30;1.33;;;1.23;;
14400;SDS011;7285;50.894;5.462;2023-08-30T05:53:57;1.00;;;0.93;;
14400;SDS011;7285;50.894;5.462;2023-08-30T05:56:26;1.57;;;1.47;;
14400;SDS011;7285;50.894;5.462;2023-08-30T05:58:53;1.30;;;1.30;;
14400;SDS011;7285;50.894;5.462;2023-08-30T06:01:20;1.50;;;1.47;;
14400;SDS011;7285;50.894;5.462;2023-08-30T06:03:47;1.60;;;1.50;;
14400;SDS011;7285;50.894;5.462;2023-08-30T06:06:16;1.73;;;1.63;;
14400;SDS011;7285;50.894;5.462;2023-08-30T06:08:43;1.10;;;1.10;;
14400;SDS011;7285;50.894;5.462;2023-08-30T06:11:10;1.30;;;1.20;;
14400;SDS011;7285;50.894;5.462;2023-08-30T06:13:38;1.00;;;1.00;;
14400;SDS011;7285;50.894;5.462;2023-08-30T06:16:05;0.90;;;0.90;;
14400;SDS011;7285;50.894;5.462;2023-08-30T06:18:32;1.40;;;0.93;;
14400;SDS011;7285;50.894;5.462;2023-08-30T06:20:59;1.53;;;1.43;;
14400;SDS011;7285;50.894;5.462;2023-08-30T06:23:26;1.80;;;1.70;;
14400;SDS011;7285;50.894;5.462;2023-08-30T06:25:53;1.53;;;1.43;;
14400;SDS011;7285;50.894;5.462;2023-08-30T06:28:20;1.50;;;1.30;;
14400;SDS011;7285;50.894;5.462;2023-08-30T06:30:49;1.30;;;1.20;;
14400;SDS011;7285;50.894;5.462;2023-08-30T06:33:16;0.67;;;0.67;;
14400;SDS011;7285;50.894;5.462;2023-08-30T06:35:43;1.37;;;1.27;;
14400;SDS011;7285;50.894;5.462;2023-08-30T06:38:13;1.67;;;1.63;;
14400;SDS011;7285;50.894;5.462;2023-08-30T06:40:42;0.90;;;0.90;;
14400;SDS011;7285;50.894;5.462;2023-08-30T06:43:10;1.13;;;1.00;;
14400;SDS011;7285;50.894;5.462;2023-08-30T06:45:38;0.83;;;0.83;;
14400;SDS011;7285;50.894;5.462;2023-08-30T06:48:07;1.23;;;1.13;;
14400;SDS011;7285;50.894;5.462;2023-08-30T06:50:34;1.67;;;1.57;;
14400;SDS011;7285;50.894;5.462;2023-08-30T06:53:01;1.00;;;1.00;;
14400;SDS011;7285;50.894;5.462;2023-08-30T06:55:28;1.70;;;1.00;;
14400;SDS011;7285;50.894;5.462;2023-08-30T06:57:55;0.70;;;0.70;;
14400;SDS011;7285;50.894;5.462;2023-08-30T07:00:22;0.93;;;0.93;;
14400;SDS011;7285;50.894;5.462;2023-08-30T07:02:49;0.90;;;0.90;;
14400;SDS011;7285;50.894;5.462;2023-08-30T07:05:17;1.07;;;1.07;;
14400;SDS011;7285;50.894;5.462;2023-08-30T07:07:44;0.50;;;0.50;;
14400;SDS011;7285;50.894;5.462;2023-08-30T07:10:11;0.70;;;0.70;;
14400;SDS011;7285;50.894;5.462;2023-08-30T07:12:38;0.40;;;0.40;;
14400;SDS011;7285;50.894;5.462;2023-08-30T07:15:05;1.27;;;0.73;;
14400;SDS011;7285;50.894;5.462;2023-08-30T07:17:33;0.70;;;0.70;;
14400;SDS011;7285;50.894;5.462;2023-08-30T07:20:00;1.40;;;1.17;;
14400;SDS011;7285;50.894;5.462;2023-08-30T07:22:31;0.87;;;0.87;;
14400;SDS011;7285;50.894;5.462;2023-08-30T07:24:58;0.87;;;0.87;;
14400;SDS011;7285;50.894;5.462;2023-08-30T07:27:25;0.80;;;0.73;;
14400;SDS011;7285;50.894;5.462;2023-08-30T07:29:53;0.83;;;0.83;;
14400;SDS011;7285;50.894;5.462;2023-08-30T07:32:20;0.60;;;0.60;;
14400;SDS011;7285;50.894;5.462;2023-08-30T07:34:47;7.93;;;0.97;;
14400;SDS011;7285;50.894;5.462;2023-08-30T07:37:18;3.13;;;1.00;;
14400;SDS011;7285;50.894;5.462;2023-08-30T07:42:18;1.80;;;1.27;;
14400;SDS011;7285;50.894;5.462;2023-08-30T07:44:45;1.00;;;1.00;;
14400;SDS011;7285;50.894;5.462;2023-08-30T07:47:12;1.53;;;1.43;;
14400;SDS011;7285;50.894;5.462;2023-08-30T07:49:39;0.50;;;0.50;;
14400;SDS011;7285;50.894;5.462;2023-08-30T07:52:06;0.80;;;0.80;;
14400;SDS011;7285;50.894;5.462;2023-08-30T07:54:36;0.57;;;0.57;;
14400;SDS011;7285;50.894;5.462;2023-08-30T07:57:05;0.90;;;0.90;;
14400;SDS011;7285;50.894;5.462;2023-08-30T07:59:32;0.90;;;0.90;;
14400;SDS011;7285;50.894;5.462;2023-08-30T08:02:00;0.77;;;0.77;;
14400;SDS011;7285;50.894;5.462;2023-08-30T08:04:27;0.97;;;0.97;;
14400;SDS011;7285;50.894;5.462;2023-08-30T08:06:54;2.37;;;0.87;;
14400;SDS011;7285;50.894;5.462;2023-08-30T08:09:21;0.70;;;0.70;;
14400;SDS011;7285;50.894;5.462;2023-08-30T08:11:49;2.13;;;0.83;;
14400;SDS011;7285;50.894;5.462;2023-08-30T08:14:18;0.60;;;0.60;;
14400;SDS011;7285;50.894;5.462;2023-08-30T08:19:14;0.67;;;0.67;;
14400;SDS011;7285;50.894;5.462;2023-08-30T08:21:41;1.03;;;1.03;;
14400;SDS011;7285;50.894;5.462;2023-08-30T08:24:08;0.93;;;0.93;;
14400;SDS011;7285;50.894;5.462;2023-08-30T08:26:35;1.10;;;0.80;;
14400;SDS011;7285;50.894;5.462;2023-08-30T08:29:02;0.60;;;0.60;;
14400;SDS011;7285;50.894;5.462;2023-08-30T08:31:31;0.80;;;0.80;;
14400;SDS011;7285;50.894;5.462;2023-08-30T08:34:07;0.53;;;0.53;;
14400;SDS011;7285;50.894;5.462;2023-08-30T08:36:36;1.00;;;1.00;;
14400;SDS011;7285;50.894;5.462;2023-08-30T08:39:06;0.70;;;0.70;;
14400;SDS011;7285;50.894;5.462;2023-08-30T08:41:38;1.20;;;1.10;;
14400;SDS011;7285;50.894;5.462;2023-08-30T08:44:07;0.83;;;0.83;;
14400;SDS011;7285;50.894;5.462;2023-08-30T08:46:36;1.50;;;1.47;;
14400;SDS011;7285;50.894;5.462;2023-08-30T08:49:05;0.70;;;0.70;;
14400;SDS011;7285;50.894;5.462;2023-08-30T08:51:37;0.73;;;0.73;;
14400;SDS011;7285;50.894;5.462;2023-08-30T08:54:05;0.80;;;0.80;;
14400;SDS011;7285;50.894;5.462;2023-08-30T08:56:34;0.67;;;0.67;;
14400;SDS011;7285;50.894;5.462;2023-08-30T08:59:01;0.80;;;0.80;;
14400;SDS011;7285;50.894;5.462;2023-08-30T09:01:30;0.43;;;0.43;;
14400;SDS011;7285;50.894;5.462;2023-08-30T09:04:01;4.90;;;0.70;;
14400;SDS011;7285;50.894;5.462;2023-08-30T09:06:30;0.80;;;0.80;;
14400;SDS011;7285;50.894;5.462;2023-08-30T09:08:58;0.63;;;0.63;;
14400;SDS011;7285;50.894;5.462;2023-08-30T09:11:25;0.70;;;0.70;;
14400;SDS011;7285;50.894;5.462;2023-08-30T09:13:52;0.90;;;0.90;;
14400;SDS011;7285;50.894;5.462;2023-08-30T09:16:19;0.60;;;0.60;;
14400;SDS011;7285;50.894;5.462;2023-08-30T09:18:56;0.70;;;0.70;;
14400;SDS011;7285;50.894;5.462;2023-08-30T09:21:25;0.63;;;0.63;;
14400;SDS011;7285;50.894;5.462;2023-08-30T09:23:59;0.50;;;0.50;;
14400;SDS011;7285;50.894;5.462;2023-08-30T09:26:26;0.77;;;0.73;;
14400;SDS011;7285;50.894;5.462;2023-08-30T09:28:54;0.67;;;0.67;;
14400;SDS011;7285;50.894;5.462;2023-08-30T09:31:21;0.60;;;0.60;;
14400;SDS011;7285;50.894;5.462;2023-08-30T09:33:48;0.60;;;0.60;;
14400;SDS011;7285;50.894;5.462;2023-08-30T09:36:15;0.87;;;0.87;;
14400;SDS011;7285;50.894;5.462;2023-08-30T09:38:49;0.50;;;0.50;;
14400;SDS011;7285;50.894;5.462;2023-08-30T09:41:16;0.70;;;0.70;;
14400;SDS011;7285;50.894;5.462;2023-08-30T09:43:43;0.80;;;0.80;;
14400;SDS011;7285;50.894;5.462;2023-08-30T09:46:12;0.70;;;0.70;;
14400;SDS011;7285;50.894;5.462;2023-08-30T09:48:39;0.40;;;0.40;;
14400;SDS011;7285;50.894;5.462;2023-08-30T09:51:07;0.80;;;0.80;;
14400;SDS011;7285;50.894;5.462;2023-08-30T09:53:37;0.40;;;0.40;;
14400;SDS011;7285;50.894;5.462;2023-08-30T09:56:11;0.50;;;0.50;;
14400;SDS011;7285;50.894;5.462;2023-08-30T09:58:40;0.67;;;0.67;;
14400;SDS011;7285;50.894;5.462;2023-08-30T10:01:08;0.50;;;0.50;;
14400;SDS011;7285;50.894;5.462;2023-08-30T10:03:36;0.50;;;0.50;;
14400;SDS011;7285;50.894;5.462;2023-08-30T10:06:03;0.67;;;0.67;;
14400;SDS011;7285;50.894;5.462;2023-08-30T10:08:31;0.73;;;0.73;;
14400;SDS011;7285;50.894;5.462;2023-08-30T10:11:03;0.50;;;0.50;;
14400;SDS011;7285;50.894;5.462;2023-08-30T10:13:33;0.40;;;0.40;;
14400;SDS011;7285;50.894;5.462;2023-08-30T10:16:05;0.60;;;0.60;;
14400;SDS011;7285;50.894;5.462;2023-08-30T10:18:32;0.50;;;0.50;;
14400;SDS011;7285;50.894;5.462;2023-08-30T10:21:01;0.60;;;0.60;;
14400;SDS011;7285;50.894;5.462;2023-08-30T10:23:31;3.10;;;0.73;;
14400;SDS011;7285;50.894;5.462;2023-08-30T10:25:59;0.50;;;0.50;;
14400;SDS011;7285;50.894;5.462;2023-08-30T10:28:28;0.40;;;0.40;;
14400;SDS011;7285;50.894;5.462;2023-08-30T10:30:58;0.50;;;0.50;;
14400;SDS011;7285;50.894;5.462;2023-08-30T10:33:25;0.70;;;0.70;;
14400;SDS011;7285;50.894;5.462;2023-08-30T10:35:52;1.23;;;1.17;;
14400;SDS011;7285;50.894;5.462;2023-08-30T10:38:24;0.60;;;0.60;;
14400;SDS011;7285;50.894;5.462;2023-08-30T10:40:52;0.60;;;0.60;;
14400;SDS011;7285;50.894;5.462;2023-08-30T10:43:27;0.50;;;0.50;;
14400;SDS011;7285;50.894;5.462;2023-08-30T10:46:00;0.97;;;0.97;;
14400;SDS011;7285;50.894;5.462;2023-08-30T10:48:35;0.50;;;0.50;;
14400;SDS011;7285;50.894;5.462;2023-08-30T10:51:02;0.50;;;0.50;;
14400;SDS011;7285;50.894;5.462;2023-08-30T10:53:29;0.40;;;0.40;;
14400;SDS011;7285;50.894;5.462;2023-08-30T10:56:03;0.67;;;0.60;;
14400;SDS011;7285;50.894;5.462;2023-08-30T10:58:40;0.60;;;0.60;;
14400;SDS011;7285;50.894;5.462;2023-08-30T11:01:10;0.40;;;0.40;;
14400;SDS011;7285;50.894;5.462;2023-08-30T11:03:38;0.63;;;0.63;;
14400;SDS011;7285;50.894;5.462;2023-08-30T11:06:06;0.37;;;0.37;;
14400;SDS011;7285;50.894;5.462;2023-08-30T11:08:33;0.40;;;0.40;;
14400;SDS011;7285;50.894;5.462;2023-08-30T11:11:02;0.60;;;0.60;;
14400;SDS011;7285;50.894;5.462;2023-08-30T11:13:30;0.40;;;0.40;;
14400;SDS011;7285;50.894;5.462;2023-08-30T11:16:00;0.33;;;0.33;;
14400;SDS011;7285;50.894;5.462;2023-08-30T11:18:30;0.30;;;0.30;;
14400;SDS011;7285;50.894;5.462;2023-08-30T11:20:58;0.30;;;0.30;;
14400;SDS011;7285;50.894;5.462;2023-08-30T11:23:26;0.40;;;0.40;;
14400;SDS011;7285;50.894;5.462;2023-08-30T11:25:53;0.37;;;0.37;;
14400;SDS011;7285;50.894;5.462;2023-08-30T11:28:23;0.40;;;0.40;;
14400;SDS011;7285;50.894;5.462;2023-08-30T11:30:52;0.40;;;0.40;;
14400;SDS011;7285;50.894;5.462;2023-08-30T11:33:20;0.50;;;0.50;;
14400;SDS011;7285;50.894;5.462;2023-08-30T11:35:49;0.57;;;0.57;;
14400;SDS011;7285;50.894;5.462;2023-08-30T11:38:17;0.30;;;0.30;;
14400;SDS011;7285;50.894;5.462;2023-08-30T11:40:45;0.40;;;0.40;;
14400;SDS011;7285;50.894;5.462;2023-08-30T11:43:15;0.50;;;0.50;;
14400;SDS011;7285;50.894;5.462;2023-08-30T11:45:42;0.40;;;0.40;;
14400;SDS011;7285;50.894;5.462;2023-08-30T11:48:09;0.47;;;0.47;;
14400;SDS011;7285;50.894;5.462;2023-08-30T11:50:36;0.50;;;0.50;;
14400;SDS011;7285;50.894;5.462;2023-08-30T11:53:05;0.40;;;0.40;;
14400;SDS011;7285;50.894;5.462;2023-08-30T11:55:32;0.30;;;0.30;;
14400;SDS011;7285;50.894;5.462;2023-08-30T11:57:59;0.30;;;0.30;;
14400;SDS011;7285;50.894;5.462;2023-08-30T12:00:28;0.40;;;0.40;;
14400;SDS011;7285;50.894;5.462;2023-08-30T12:02:58;0.40;;;0.40;;
14400;SDS011;7285;50.894;5.462;2023-08-30T12:05:25;0.40;;;0.40;;
14400;SDS011;7285;50.894;5.462;2023-08-30T12:07:52;0.50;;;0.50;;
14400;SDS011;7285;50.894;5.462;2023-08-30T12:10:21;0.50;;;0.50;;
14400;SDS011;7285;50.894;5.462;2023-08-30T12:12:48;0.57;;;0.57;;
14400;SDS011;7285;50.894;5.462;2023-08-30T12:15:14;0.40;;;0.40;;
14400;SDS011;7285;50.894;5.462;2023-08-30T12:17:42;0.60;;;0.60;;
14400;SDS011;7285;50.894;5.462;2023-08-30T12:20:15;0.40;;;0.40;;
14400;SDS011;7285;50.894;5.462;2023-08-30T12:22:45;0.80;;;0.60;;
14400;SDS011;7285;50.894;5.462;2023-08-30T12:25:16;0.40;;;0.40;;
14400;SDS011;7285;50.894;5.462;2023-08-30T12:27:46;0.37;;;0.37;;
14400;SDS011;7285;50.894;5.462;2023-08-30T12:30:13;0.60;;;0.60;;
14400;SDS011;7285;50.894;5.462;2023-08-30T12:32:42;0.50;;;0.50;;
14400;SDS011;7285;50.894;5.462;2023-08-30T12:35:09;0.50;;;0.50;;
14400;SDS011;7285;50.894;5.462;2023-08-30T12:37:36;0.40;;;0.40;;
14400;SDS011;7285;50.894;5.462;2023-08-30T12:40:04;0.30;;;0.30;;
14400;SDS011;7285;50.894;5.462;2023-08-30T12:42:32;0.57;;;0.57;;
14400;SDS011;7285;50.894;5.462;2023-08-30T12:45:00;0.50;;;0.50;;
14400;SDS011;7285;50.894;5.462;2023-08-30T12:47:28;0.47;;;0.47;;
14400;SDS011;7285;50.894;5.462;2023-08-30T12:49:55;0.40;;;0.40;;
14400;SDS011;7285;50.894;5.462;2023-08-30T12:52:22;0.30;;;0.30;;
14400;SDS011;7285;50.894;5.462;2023-08-30T12:54:49;0.40;;;0.40;;
14400;SDS011;7285;50.894;5.462;2023-08-30T12:57:17;0.33;;;0.33;;
14400;SDS011;7285;50.894;5.462;2023-08-30T12:59:44;0.50;;;0.50;;
14400;SDS011;7285;50.894;5.462;2023-08-30T13:02:12;0.57;;;0.57;;
14400;SDS011;7285;50.894;5.462;2023-08-30T13:04:39;0.80;;;0.80;;
14400;SDS011;7285;50.894;5.462;2023-08-30T13:07:06;0.60;;;0.60;;
14400;SDS011;7285;50.894;5.462;2023-08-30T13:09:33;0.90;;;0.90;;
14400;SDS011;7285;50.894;5.462;2023-08-30T13:12:00;0.70;;;0.70;;
14400;SDS011;7285;50.894;5.462;2023-08-30T13:14:26;0.63;;;0.63;;
14400;SDS011;7285;50.894;5.462;2023-08-30T13:16:53;0.87;;;0.87;;
14400;SDS011;7285;50.894;5.462;2023-08-30T13:19:22;0.50;;;0.50;;
14400;SDS011;7285;50.894;5.462;2023-08-30T13:21:49;0.83;;;0.83;;
14400;SDS011;7285;50.894;5.462;2023-08-30T13:24:16;0.70;;;0.70;;
14400;SDS011;7285;50.894;5.462;2023-08-30T13:26:42;0.73;;;0.73;;
14400;SDS011;7285;50.894;5.462;2023-08-30T13:29:10;1.07;;;0.97;;
14400;SDS011;7285;50.894;5.462;2023-08-30T13:31:37;0.97;;;0.97;;
14400;SDS011;7285;50.894;5.462;2023-08-30T13:34:04;0.63;;;0.63;;
14400;SDS011;7285;50.894;5.462;2023-08-30T13:36:32;0.90;;;0.80;;
14400;SDS011;7285;50.894;5.462;2023-08-30T13:39:00;0.60;;;0.60;;
14400;SDS011;7285;50.894;5.462;2023-08-30T13:41:27;0.87;;;0.87;;
14400;SDS011;7285;50.894;5.462;2023-08-30T13:43:54;0.80;;;0.80;;
14400;SDS011;7285;50.894;5.462;2023-08-30T13:46:21;0.70;;;0.70;;
14400;SDS011;7285;50.894;5.462;2023-08-30T13:48:48;0.67;;;0.67;;
14400;SDS011;7285;50.894;5.462;2023-08-30T13:51:20;0.50;;;0.50;;
14400;SDS011;7285;50.894;5.462;2023-08-30T13:53:49;0.80;;;0.80;;
14400;SDS011;7285;50.894;5.462;2023-08-30T13:56:16;0.90;;;0.90;;
14400;SDS011;7285;50.894;5.462;2023-08-30T13:58:44;0.70;;;0.70;;
14400;SDS011;7285;50.894;5.462;2023-08-30T14:01:11;1.00;;;0.70;;
14400;SDS011;7285;50.894;5.462;2023-08-30T14:03:38;0.53;;;0.53;;
14400;SDS011;7285;50.894;5.462;2023-08-30T14:06:05;0.70;;;0.70;;
14400;SDS011;7285;50.894;5.462;2023-08-30T14:08:32;0.67;;;0.67;;
14400;SDS011;7285;50.894;5.462;2023-08-30T14:11:00;1.00;;;0.90;;
14400;SDS011;7285;50.894;5.462;2023-08-30T14:13:28;0.70;;;0.70;;
14400;SDS011;7285;50.894;5.462;2023-08-30T14:15:58;1.50;;;0.93;;
14400;SDS011;7285;50.894;5.462;2023-08-30T14:18:25;0.80;;;0.80;;
14400;SDS011;7285;50.894;5.462;2023-08-30T14:20:55;3.50;;;1.03;;
14400;SDS011;7285;50.894;5.462;2023-08-30T14:23:24;0.50;;;0.50;;
14400;SDS011;7285;50.894;5.462;2023-08-30T14:25:57;0.30;;;0.30;;
14400;SDS011;7285;50.894;5.462;2023-08-30T14:28:26;0.97;;;0.63;;
14400;SDS011;7285;50.894;5.462;2023-08-30T14:30:53;0.90;;;0.90;;
14400;SDS011;7285;50.894;5.462;2023-08-30T14:33:20;0.50;;;0.50;;
14400;SDS011;7285;50.894;5.462;2023-08-30T14:35:47;0.50;;;0.50;;
14400;SDS011;7285;50.894;5.462;2023-08-30T14:38:14;5.50;;;0.60;;
14400;SDS011;7285;50.894;5.462;2023-08-30T14:40:42;0.33;;;0.33;;
14400;SDS011;7285;50.894;5.462;2023-08-30T14:43:09;0.93;;;0.30;;
14400;SDS011;7285;50.894;5.462;2023-08-30T14:45:38;0.57;;;0.20;;
14400;SDS011;7285;50.894;5.462;2023-08-30T14:48:05;0.40;;;0.30;;
14400;SDS011;7285;50.894;5.462;2023-08-30T14:50:33;0.30;;;0.30;;
14400;SDS011;7285;50.894;5.462;2023-08-30T14:53:00;0.50;;;0.50;;
14400;SDS011;7285;50.894;5.462;2023-08-30T14:55:27;4.17;;;0.70;;
14400;SDS011;7285;50.894;5.462;2023-08-30T14:57:55;0.37;;;0.37;;
14400;SDS011;7285;50.894;5.462;2023-08-30T15:00:22;0.50;;;0.50;;
14400;SDS011;7285;50.894;5.462;2023-08-30T15:02:50;1.03;;;0.87;;
14400;SDS011;7285;50.894;5.462;2023-08-30T15:05:17;3.63;;;0.47;;
14400;SDS011;7285;50.894;5.462;2023-08-30T15:07:44;0.40;;;0.40;;
14400;SDS011;7285;50.894;5.462;2023-08-30T15:10:11;0.70;;;0.70;;
14400;SDS011;7285;50.894;5.462;2023-08-30T15:12:38;0.70;;;0.40;;
14400;SDS011;7285;50.894;5.462;2023-08-30T15:15:05;1.20;;;1.07;;